sensor_id;sensor_type;location;lat;lon;timestamp;P1;durP1;ratioP1;P2;durP2;ratioP2
47760;SDS011;33524;55.434;38.520;2022-10-16T00:01:45;10.38;;;6.50;;
47760;SDS011;33524;55.434;38.520;2022-10-16T00:04:14;17.08;;;6.25;;
47760;SDS011;33524;55.434;38.520;2022-10-16T00:06:42;9.00;;;5.10;;
47760;SDS011;33524;55.434;38.520;2022-10-16T00:09:10;8.50;;;5.57;;
47760;SDS011;33524;55.434;38.520;2022-10-16T00:11:42;14.60;;;6.15;;
47760;SDS011;33524;55.434;38.520;2022-10-16T00:14:11;8.68;;;5.53;;
47760;SDS011;33524;55.434;38.520;2022-10-16T00:16:42;11.05;;;5.03;;
47760;SDS011;33524;55.434;38.520;2022-10-16T00:19:10;11.00;;;5.85;;
47760;SDS011;33524;55.434;38.520;2022-10-16T00:21:39;9.90;;;5.05;;
47760;SDS011;33524;55.434;38.520;2022-10-16T00:24:26;10.73;;;5.60;;
47760;SDS011;33524;55.434;38.520;2022-10-16T00:26:55;8.68;;;5.90;;
47760;SDS011;33524;55.434;38.520;2022-10-16T00:29:23;13.48;;;5.78;;
47760;SDS011;33524;55.434;38.520;2022-10-16T00:31:51;9.60;;;5.72;;
47760;SDS011;33524;55.434;38.520;2022-10-16T00:34:19;8.23;;;5.45;;
47760;SDS011;33524;55.434;38.520;2022-10-16T00:36:47;9.90;;;5.72;;
47760;SDS011;33524;55.434;38.520;2022-10-16T00:39:15;10.15;;;5.60;;
47760;SDS011;33524;55.434;38.520;2022-10-16T00:41:43;9.27;;;5.32;;
47760;SDS011;33524;55.434;38.520;2022-10-16T00:47:21;9.15;;;5.28;;
47760;SDS011;33524;55.434;38.520;2022-10-16T00:50:29;6.28;;;4.32;;
47760;SDS011;33524;55.434;38.520;2022-10-16T00:52:57;6.30;;;3.75;;
47760;SDS011;33524;55.434;38.520;2022-10-16T00:55:31;7.95;;;4.15;;
47760;SDS011;33524;55.434;38.520;2022-10-16T00:57:59;9.32;;;3.90;;
47760;SDS011;33524;55.434;38.520;2022-10-16T01:00:30;7.97;;;3.53;;
47760;SDS011;33524;55.434;38.520;2022-10-16T01:02:59;8.18;;;4.40;;
47760;SDS011;33524;55.434;38.520;2022-10-16T01:05:41;8.48;;;3.62;;
47760;SDS011;33524;55.434;38.520;2022-10-16T01:08:21;8.98;;;4.97;;
47760;SDS011;33524;55.434;38.520;2022-10-16T01:10:59;10.02;;;4.70;;
47760;SDS011;33524;55.434;38.520;2022-10-16T01:13:54;5.65;;;3.33;;
47760;SDS011;33524;55.434;38.520;2022-10-16T01:16:32;6.93;;;3.60;;
47760;SDS011;33524;55.434;38.520;2022-10-16T01:19:41;12.88;;;4.93;;
47760;SDS011;33524;55.434;38.520;2022-10-16T01:22:12;11.02;;;5.85;;
47760;SDS011;33524;55.434;38.520;2022-10-16T01:24:46;9.52;;;5.72;;
47760;SDS011;33524;55.434;38.520;2022-10-16T01:27:29;8.77;;;5.65;;
47760;SDS011;33524;55.434;38.520;2022-10-16T01:30:04;9.27;;;5.25;;
47760;SDS011;33524;55.434;38.520;2022-10-16T01:32:48;9.13;;;5.57;;
47760;SDS011;33524;55.434;38.520;2022-10-16T01:35:25;9.25;;;5.30;;
47760;SDS011;33524;55.434;38.520;2022-10-16T01:37:59;8.73;;;5.43;;
47760;SDS011;33524;55.434;38.520;2022-10-16T01:40:29;12.77;;;5.78;;
47760;SDS011;33524;55.434;38.520;2022-10-16T01:43:00;8.07;;;4.57;;
47760;SDS011;33524;55.434;38.520;2022-10-16T01:45:35;10.07;;;5.72;;
47760;SDS011;33524;55.434;38.520;2022-10-16T01:48:07;8.60;;;5.85;;
47760;SDS011;33524;55.434;38.520;2022-10-16T01:50:40;7.18;;;4.05;;
47760;SDS011;33524;55.434;38.520;2022-10-16T01:53:11;8.55;;;4.12;;
47760;SDS011;33524;55.434;38.520;2022-10-16T01:55:44;7.85;;;4.50;;
47760;SDS011;33524;55.434;38.520;2022-10-16T01:58:15;8.77;;;5.07;;
47760;SDS011;33524;55.434;38.520;2022-10-16T02:00:44;9.93;;;6.03;;
47760;SDS011;33524;55.434;38.520;2022-10-16T02:03:16;8.00;;;4.45;;
47760;SDS011;33524;55.434;38.520;2022-10-16T02:05:49;7.18;;;3.90;;
47760;SDS011;33524;55.434;38.520;2022-10-16T02:08:29;6.22;;;3.72;;
47760;SDS011;33524;55.434;38.520;2022-10-16T02:10:58;8.32;;;4.12;;
47760;SDS011;33524;55.434;38.520;2022-10-16T02:13:39;14.20;;;6.40;;
47760;SDS011;33524;55.434;38.520;2022-10-16T02:16:16;11.48;;;6.45;;
47760;SDS011;33524;55.434;38.520;2022-10-16T02:18:44;10.02;;;4.97;;
47760;SDS011;33524;55.434;38.520;2022-10-16T02:23:54;6.05;;;4.20;;
47760;SDS011;33524;55.434;38.520;2022-10-16T02:26:48;10.38;;;5.32;;
47760;SDS011;33524;55.434;38.520;2022-10-16T02:29:21;7.68;;;4.45;;
47760;SDS011;33524;55.434;38.520;2022-10-16T02:31:59;7.78;;;4.57;;
47760;SDS011;33524;55.434;38.520;2022-10-16T02:34:34;7.32;;;3.47;;
47760;SDS011;33524;55.434;38.520;2022-10-16T02:37:03;7.53;;;4.15;;
47760;SDS011;33524;55.434;38.520;2022-10-16T02:39:33;14.70;;;7.07;;
47760;SDS011;33524;55.434;38.520;2022-10-16T02:42:01;12.10;;;5.37;;
47760;SDS011;33524;55.434;38.520;2022-10-16T02:44:30;11.65;;;5.22;;
47760;SDS011;33524;55.434;38.520;2022-10-16T02:46:58;7.97;;;4.00;;
47760;SDS011;33524;55.434;38.520;2022-10-16T02:49:26;8.02;;;4.25;;
47760;SDS011;33524;55.434;38.520;2022-10-16T02:51:54;13.25;;;6.60;;
47760;SDS011;33524;55.434;38.520;2022-10-16T02:54:22;9.27;;;5.10;;
47760;SDS011;33524;55.434;38.520;2022-10-16T02:56:51;9.88;;;6.68;;
47760;SDS011;33524;55.434;38.520;2022-10-16T02:59:22;8.38;;;5.10;;
47760;SDS011;33524;55.434;38.520;2022-10-16T03:01:50;8.93;;;4.75;;
47760;SDS011;33524;55.434;38.520;2022-10-16T03:04:18;13.93;;;8.40;;
47760;SDS011;33524;55.434;38.520;2022-10-16T03:06:46;8.98;;;5.03;;
47760;SDS011;33524;55.434;38.520;2022-10-16T03:09:14;12.10;;;6.72;;
47760;SDS011;33524;55.434;38.520;2022-10-16T03:11:42;6.55;;;4.18;;
47760;SDS011;33524;55.434;38.520;2022-10-16T03:14:10;11.15;;;5.57;;
47760;SDS011;33524;55.434;38.520;2022-10-16T03:16:41;9.02;;;5.10;;
47760;SDS011;33524;55.434;38.520;2022-10-16T03:19:09;6.37;;;4.22;;
47760;SDS011;33524;55.434;38.520;2022-10-16T03:21:40;9.88;;;4.82;;
47760;SDS011;33524;55.434;38.520;2022-10-16T03:24:08;7.78;;;4.75;;
47760;SDS011;33524;55.434;38.520;2022-10-16T03:26:36;6.93;;;4.43;;
47760;SDS011;33524;55.434;38.520;2022-10-16T03:29:05;7.12;;;4.37;;
47760;SDS011;33524;55.434;38.520;2022-10-16T03:31:33;6.93;;;4.25;;
47760;SDS011;33524;55.434;38.520;2022-10-16T03:34:01;5.07;;;3.33;;
47760;SDS011;33524;55.434;38.520;2022-10-16T03:36:29;6.40;;;4.40;;
47760;SDS011;33524;55.434;38.520;2022-10-16T03:38:57;8.52;;;4.68;;
47760;SDS011;33524;55.434;38.520;2022-10-16T03:41:25;6.72;;;4.25;;
47760;SDS011;33524;55.434;38.520;2022-10-16T03:43:53;7.28;;;4.80;;
47760;SDS011;33524;55.434;38.520;2022-10-16T03:46:21;6.45;;;3.85;;
47760;SDS011;33524;55.434;38.520;2022-10-16T03:48:49;8.45;;;4.97;;
47760;SDS011;33524;55.434;38.520;2022-10-16T03:51:17;9.27;;;5.45;;
47760;SDS011;33524;55.434;38.520;2022-10-16T03:53:45;6.80;;;3.40;;
47760;SDS011;33524;55.434;38.520;2022-10-16T03:56:16;7.78;;;4.12;;
47760;SDS011;33524;55.434;38.520;2022-10-16T03:58:44;8.70;;;5.22;;
47760;SDS011;33524;55.434;38.520;2022-10-16T04:01:12;6.78;;;3.72;;
47760;SDS011;33524;55.434;38.520;2022-10-16T04:03:40;6.68;;;4.57;;
47760;SDS011;33524;55.434;38.520;2022-10-16T04:06:08;5.20;;;3.40;;
47760;SDS011;33524;55.434;38.520;2022-10-16T04:08:36;6.18;;;3.60;;
47760;SDS011;33524;55.434;38.520;2022-10-16T04:11:04;7.43;;;3.50;;
47760;SDS011;33524;55.434;38.520;2022-10-16T04:13:32;5.15;;;3.25;;
47760;SDS011;33524;55.434;38.520;2022-10-16T04:16:00;6.97;;;3.75;;
47760;SDS011;33524;55.434;38.520;2022-10-16T04:18:28;4.97;;;3.53;;
47760;SDS011;33524;55.434;38.520;2022-10-16T04:20:56;5.60;;;3.62;;
47760;SDS011;33524;55.434;38.520;2022-10-16T04:23:24;6.18;;;3.50;;
47760;SDS011;33524;55.434;38.520;2022-10-16T04:25:52;6.07;;;3.50;;
47760;SDS011;33524;55.434;38.520;2022-10-16T04:28:20;7.35;;;3.58;;
47760;SDS011;33524;55.434;38.520;2022-10-16T04:30:48;5.37;;;3.53;;
47760;SDS011;33524;55.434;38.520;2022-10-16T04:33:19;5.28;;;3.25;;
47760;SDS011;33524;55.434;38.520;2022-10-16T04:35:47;6.32;;;4.12;;
47760;SDS011;33524;55.434;38.520;2022-10-16T04:38:15;6.72;;;4.22;;
47760;SDS011;33524;55.434;38.520;2022-10-16T04:40:43;7.32;;;4.05;;
47760;SDS011;33524;55.434;38.520;2022-10-16T04:43:11;6.82;;;4.68;;
47760;SDS011;33524;55.434;38.520;2022-10-16T04:45:39;8.98;;;5.03;;
47760;SDS011;33524;55.434;38.520;2022-10-16T04:48:07;10.60;;;5.90;;
47760;SDS011;33524;55.434;38.520;2022-10-16T04:50:35;8.88;;;5.62;;
47760;SDS011;33524;55.434;38.520;2022-10-16T04:53:04;10.10;;;5.82;;
47760;SDS011;33524;55.434;38.520;2022-10-16T04:55:33;7.57;;;4.45;;
47760;SDS011;33524;55.434;38.520;2022-10-16T04:58:01;9.10;;;5.05;;
47760;SDS011;33524;55.434;38.520;2022-10-16T05:00:29;9.23;;;5.28;;
47760;SDS011;33524;55.434;38.520;2022-10-16T05:02:57;8.63;;;5.53;;
47760;SDS011;33524;55.434;38.520;2022-10-16T05:05:31;7.18;;;4.65;;
47760;SDS011;33524;55.434;38.520;2022-10-16T05:08:02;5.80;;;3.78;;
47760;SDS011;33524;55.434;38.520;2022-10-16T05:10:31;7.85;;;4.90;;
47760;SDS011;33524;55.434;38.520;2022-10-16T05:12:59;9.43;;;5.03;;
47760;SDS011;33524;55.434;38.520;2022-10-16T05:15:27;6.53;;;3.95;;
47760;SDS011;33524;55.434;38.520;2022-10-16T05:17:56;8.48;;;5.15;;
47760;SDS011;33524;55.434;38.520;2022-10-16T05:20:24;4.90;;;3.37;;
47760;SDS011;33524;55.434;38.520;2022-10-16T05:22:52;6.70;;;4.15;;
47760;SDS011;33524;55.434;38.520;2022-10-16T05:25:19;7.35;;;4.30;;
47760;SDS011;33524;55.434;38.520;2022-10-16T05:27:48;7.43;;;4.35;;
47760;SDS011;33524;55.434;38.520;2022-10-16T05:30:17;5.68;;;4.00;;
47760;SDS011;33524;55.434;38.520;2022-10-16T05:32:46;5.85;;;4.18;;
47760;SDS011;33524;55.434;38.520;2022-10-16T05:35:16;6.50;;;4.20;;
47760;SDS011;33524;55.434;38.520;2022-10-16T05:37:44;4.95;;;3.40;;
47760;SDS011;33524;55.434;38.520;2022-10-16T05:40:13;9.80;;;4.50;;
47760;SDS011;33524;55.434;38.520;2022-10-16T05:42:42;9.02;;;4.60;;
47760;SDS011;33524;55.434;38.520;2022-10-16T05:45:10;8.15;;;4.90;;
47760;SDS011;33524;55.434;38.520;2022-10-16T05:47:39;6.07;;;3.65;;
47760;SDS011;33524;55.434;38.520;2022-10-16T05:50:12;7.37;;;4.00;;
47760;SDS011;33524;55.434;38.520;2022-10-16T05:53:31;6.07;;;4.00;;
47760;SDS011;33524;55.434;38.520;2022-10-16T05:56:10;7.85;;;4.03;;
47760;SDS011;33524;55.434;38.520;2022-10-16T05:58:52;5.45;;;3.08;;
47760;SDS011;33524;55.434;38.520;2022-10-16T06:01:34;5.28;;;3.42;;
47760;SDS011;33524;55.434;38.520;2022-10-16T06:04:05;6.45;;;3.87;;
47760;SDS011;33524;55.434;38.520;2022-10-16T06:06:33;4.93;;;3.03;;
47760;SDS011;33524;55.434;38.520;2022-10-16T06:09:01;6.07;;;3.50;;
47760;SDS011;33524;55.434;38.520;2022-10-16T06:11:30;5.35;;;3.12;;
47760;SDS011;33524;55.434;38.520;2022-10-16T06:14:00;5.28;;;3.15;;
47760;SDS011;33524;55.434;38.520;2022-10-16T06:16:30;5.20;;;3.33;;
47760;SDS011;33524;55.434;38.520;2022-10-16T06:18:58;7.25;;;2.83;;
47760;SDS011;33524;55.434;38.520;2022-10-16T06:21:28;3.97;;;2.87;;
47760;SDS011;33524;55.434;38.520;2022-10-16T06:23:57;6.60;;;3.22;;
47760;SDS011;33524;55.434;38.520;2022-10-16T06:26:27;6.47;;;2.80;;
47760;SDS011;33524;55.434;38.520;2022-10-16T06:28:57;4.70;;;2.90;;
47760;SDS011;33524;55.434;38.520;2022-10-16T06:31:26;4.78;;;2.83;;
47760;SDS011;33524;55.434;38.520;2022-10-16T06:33:58;6.55;;;3.25;;
47760;SDS011;33524;55.434;38.520;2022-10-16T06:36:27;3.40;;;2.40;;
47760;SDS011;33524;55.434;38.520;2022-10-16T06:38:55;5.22;;;3.45;;
47760;SDS011;33524;55.434;38.520;2022-10-16T06:41:23;4.82;;;3.12;;
47760;SDS011;33524;55.434;38.520;2022-10-16T06:43:51;5.40;;;3.10;;
47760;SDS011;33524;55.434;38.520;2022-10-16T06:46:20;6.65;;;3.25;;
47760;SDS011;33524;55.434;38.520;2022-10-16T06:48:50;4.75;;;2.58;;
47760;SDS011;33524;55.434;38.520;2022-10-16T06:51:21;4.30;;;2.53;;
47760;SDS011;33524;55.434;38.520;2022-10-16T06:53:52;5.22;;;2.28;;
47760;SDS011;33524;55.434;38.520;2022-10-16T06:56:30;4.53;;;2.20;;
47760;SDS011;33524;55.434;38.520;2022-10-16T06:59:00;3.53;;;2.47;;
47760;SDS011;33524;55.434;38.520;2022-10-16T07:01:28;3.92;;;3.00;;
47760;SDS011;33524;55.434;38.520;2022-10-16T07:03:57;5.45;;;3.33;;
47760;SDS011;33524;55.434;38.520;2022-10-16T07:06:25;4.15;;;2.25;;
47760;SDS011;33524;55.434;38.520;2022-10-16T07:08:54;7.37;;;2.87;;
47760;SDS011;33524;55.434;38.520;2022-10-16T07:11:22;3.28;;;2.17;;
47760;SDS011;33524;55.434;38.520;2022-10-16T07:13:51;4.03;;;2.72;;
47760;SDS011;33524;55.434;38.520;2022-10-16T07:16:25;4.95;;;2.67;;
47760;SDS011;33524;55.434;38.520;2022-10-16T07:19:12;3.85;;;2.00;;
47760;SDS011;33524;55.434;38.520;2022-10-16T07:21:42;4.65;;;2.50;;
47760;SDS011;33524;55.434;38.520;2022-10-16T07:24:14;3.95;;;2.28;;
47760;SDS011;33524;55.434;38.520;2022-10-16T07:26:44;7.78;;;3.35;;
47760;SDS011;33524;55.434;38.520;2022-10-16T07:29:14;4.57;;;2.60;;
47760;SDS011;33524;55.434;38.520;2022-10-16T07:31:44;5.87;;;3.15;;
47760;SDS011;33524;55.434;38.520;2022-10-16T07:34:13;6.75;;;3.08;;
47760;SDS011;33524;55.434;38.520;2022-10-16T07:36:47;4.00;;;2.92;;
47760;SDS011;33524;55.434;38.520;2022-10-16T07:39:16;4.75;;;2.42;;
47760;SDS011;33524;55.434;38.520;2022-10-16T07:41:44;2.95;;;1.98;;
47760;SDS011;33524;55.434;38.520;2022-10-16T07:44:13;5.65;;;2.62;;
47760;SDS011;33524;55.434;38.520;2022-10-16T07:47:01;6.05;;;2.40;;
47760;SDS011;33524;55.434;38.520;2022-10-16T07:49:34;8.43;;;3.37;;
47760;SDS011;33524;55.434;38.520;2022-10-16T07:52:02;5.22;;;2.67;;
47760;SDS011;33524;55.434;38.520;2022-10-16T07:54:30;7.18;;;3.35;;
47760;SDS011;33524;55.434;38.520;2022-10-16T07:56:58;4.80;;;1.98;;
47760;SDS011;33524;55.434;38.520;2022-10-16T07:59:27;4.85;;;2.70;;
47760;SDS011;33524;55.434;38.520;2022-10-16T08:01:54;7.72;;;3.50;;
47760;SDS011;33524;55.434;38.520;2022-10-16T08:04:23;4.55;;;2.97;;
47760;SDS011;33524;55.434;38.520;2022-10-16T08:06:54;6.05;;;2.92;;
47760;SDS011;33524;55.434;38.520;2022-10-16T08:09:22;4.05;;;2.20;;
47760;SDS011;33524;55.434;38.520;2022-10-16T08:11:50;5.87;;;2.80;;
47760;SDS011;33524;55.434;38.520;2022-10-16T08:14:21;5.12;;;2.42;;
47760;SDS011;33524;55.434;38.520;2022-10-16T08:16:49;5.75;;;2.70;;
47760;SDS011;33524;55.434;38.520;2022-10-16T08:19:17;6.60;;;2.03;;
47760;SDS011;33524;55.434;38.520;2022-10-16T08:21:48;3.90;;;2.55;;
47760;SDS011;33524;55.434;38.520;2022-10-16T08:24:16;3.22;;;2.30;;
47760;SDS011;33524;55.434;38.520;2022-10-16T08:26:44;5.95;;;2.50;;
47760;SDS011;33524;55.434;38.520;2022-10-16T08:29:13;4.12;;;2.85;;
47760;SDS011;33524;55.434;38.520;2022-10-16T08:31:44;5.00;;;2.28;;
47760;SDS011;33524;55.434;38.520;2022-10-16T08:34:12;4.68;;;2.53;;
47760;SDS011;33524;55.434;38.520;2022-10-16T08:36:41;4.68;;;2.25;;
47760;SDS011;33524;55.434;38.520;2022-10-16T08:39:12;4.40;;;2.22;;
47760;SDS011;33524;55.434;38.520;2022-10-16T08:41:48;3.67;;;2.15;;
47760;SDS011;33524;55.434;38.520;2022-10-16T08:44:25;2.78;;;1.85;;
47760;SDS011;33524;55.434;38.520;2022-10-16T08:47:23;2.97;;;2.67;;
47760;SDS011;33524;55.434;38.520;2022-10-16T08:50:00;4.47;;;2.42;;
47760;SDS011;33524;55.434;38.520;2022-10-16T08:52:38;1.40;;;1.08;;
47760;SDS011;33524;55.434;38.520;2022-10-16T08:55:54;6.00;;;2.40;;
47760;SDS011;33524;55.434;38.520;2022-10-16T08:58:14;3.15;;;2.03;;
47760;SDS011;33524;55.434;38.520;2022-10-16T09:00:52;2.10;;;1.42;;
47760;SDS011;33524;55.434;38.520;2022-10-16T09:06:35;3.87;;;2.05;;
47760;SDS011;33524;55.434;38.520;2022-10-16T09:12:08;4.15;;;2.20;;
47760;SDS011;33524;55.434;38.520;2022-10-16T09:17:44;4.37;;;2.35;;
47760;SDS011;33524;55.434;38.520;2022-10-16T09:20:18;6.87;;;3.73;;
47760;SDS011;33524;55.434;38.520;2022-10-16T09:25:37;5.35;;;2.55;;
47760;SDS011;33524;55.434;38.520;2022-10-16T09:28:08;3.55;;;2.08;;
47760;SDS011;33524;55.434;38.520;2022-10-16T09:30:37;6.40;;;3.55;;
47760;SDS011;33524;55.434;38.520;2022-10-16T09:33:06;2.47;;;1.70;;
47760;SDS011;33524;55.434;38.520;2022-10-16T09:35:41;2.47;;;1.12;;
47760;SDS011;33524;55.434;38.520;2022-10-16T09:41:21;4.53;;;1.80;;
47760;SDS011;33524;55.434;38.520;2022-10-16T09:47:05;4.65;;;2.35;;
47760;SDS011;33524;55.434;38.520;2022-10-16T09:50:19;2.97;;;2.00;;
47760;SDS011;33524;55.434;38.520;2022-10-16T09:56:02;6.40;;;2.65;;
47760;SDS011;33524;55.434;38.520;2022-10-16T09:58:42;6.32;;;2.10;;
47760;SDS011;33524;55.434;38.520;2022-10-16T10:01:17;5.28;;;2.70;;
47760;SDS011;33524;55.434;38.520;2022-10-16T10:03:46;3.85;;;1.87;;
47760;SDS011;33524;55.434;38.520;2022-10-16T10:06:25;5.75;;;2.62;;
47760;SDS011;33524;55.434;38.520;2022-10-16T10:09:04;3.87;;;2.08;;
47760;SDS011;33524;55.434;38.520;2022-10-16T10:12:02;3.60;;;1.98;;
47760;SDS011;33524;55.434;38.520;2022-10-16T10:14:56;5.03;;;2.70;;
47760;SDS011;33524;55.434;38.520;2022-10-16T10:17:44;7.07;;;2.30;;
47760;SDS011;33524;55.434;38.520;2022-10-16T14:32:20;16.48;;;10.40;;
47760;SDS011;33524;55.434;38.520;2022-10-16T14:34:54;17.05;;;10.15;;
47760;SDS011;33524;55.434;38.520;2022-10-16T14:37:24;17.85;;;9.88;;
47760;SDS011;33524;55.434;38.520;2022-10-16T14:39:54;33.97;;;16.50;;
47760;SDS011;33524;55.434;38.520;2022-10-16T14:42:24;36.55;;;16.60;;
47760;SDS011;33524;55.434;38.520;2022-10-16T14:44:53;51.70;;;27.67;;
47760;SDS011;33524;55.434;38.520;2022-10-16T14:47:23;55.83;;;27.75;;
47760;SDS011;33524;55.434;38.520;2022-10-16T14:49:54;55.50;;;27.73;;
47760;SDS011;33524;55.434;38.520;2022-10-16T14:52:25;47.72;;;24.92;;
47760;SDS011;33524;55.434;38.520;2022-10-16T14:54:52;33.35;;;17.37;;
47760;SDS011;33524;55.434;38.520;2022-10-16T14:57:22;24.10;;;11.98;;
47760;SDS011;33524;55.434;38.520;2022-10-16T14:59:55;22.92;;;11.95;;
47760;SDS011;33524;55.434;38.520;2022-10-16T15:02:30;18.73;;;9.65;;
47760;SDS011;33524;55.434;38.520;2022-10-16T15:07:55;14.13;;;8.50;;
47760;SDS011;33524;55.434;38.520;2022-10-16T15:10:24;11.35;;;6.50;;
47760;SDS011;33524;55.434;38.520;2022-10-16T15:12:53;8.50;;;4.95;;
47760;SDS011;33524;55.434;38.520;2022-10-16T15:15:36;8.95;;;4.85;;
47760;SDS011;33524;55.434;38.520;2022-10-16T15:18:06;8.70;;;5.10;;
47760;SDS011;33524;55.434;38.520;2022-10-16T15:20:34;8.07;;;5.32;;
47760;SDS011;33524;55.434;38.520;2022-10-16T15:23:09;8.40;;;4.60;;
47760;SDS011;33524;55.434;38.520;2022-10-16T15:25:43;9.20;;;5.45;;
47760;SDS011;33524;55.434;38.520;2022-10-16T15:28:16;9.93;;;5.65;;
47760;SDS011;33524;55.434;38.520;2022-10-16T15:30:45;8.15;;;5.07;;
47760;SDS011;33524;55.434;38.520;2022-10-16T15:33:28;9.73;;;4.43;;
47760;SDS011;33524;55.434;38.520;2022-10-16T15:36:06;7.35;;;4.70;;
47760;SDS011;33524;55.434;38.520;2022-10-16T15:38:35;9.25;;;5.47;;
47760;SDS011;33524;55.434;38.520;2022-10-16T15:41:03;9.07;;;5.90;;
47760;SDS011;33524;55.434;38.520;2022-10-16T15:43:31;10.95;;;6.72;;
47760;SDS011;33524;55.434;38.520;2022-10-16T15:46:05;10.48;;;6.53;;
47760;SDS011;33524;55.434;38.520;2022-10-16T15:48:41;8.93;;;5.18;;
47760;SDS011;33524;55.434;38.520;2022-10-16T15:53:38;10.20;;;5.93;;
47760;SDS011;33524;55.434;38.520;2022-10-16T15:56:07;9.43;;;5.22;;
47760;SDS011;33524;55.434;38.520;2022-10-16T15:58:37;12.43;;;5.57;;
47760;SDS011;33524;55.434;38.520;2022-10-16T16:01:05;11.07;;;5.93;;
47760;SDS011;33524;55.434;38.520;2022-10-16T16:03:35;10.52;;;5.87;;
47760;SDS011;33524;55.434;38.520;2022-10-16T16:06:04;9.90;;;5.43;;
47760;SDS011;33524;55.434;38.520;2022-10-16T16:08:36;15.20;;;6.60;;
47760;SDS011;33524;55.434;38.520;2022-10-16T16:11:12;12.05;;;6.78;;
47760;SDS011;33524;55.434;38.520;2022-10-16T16:13:45;13.70;;;7.00;;
47760;SDS011;33524;55.434;38.520;2022-10-16T16:16:14;6.37;;;4.62;;
47760;SDS011;33524;55.434;38.520;2022-10-16T16:18:47;9.80;;;4.90;;
47760;SDS011;33524;55.434;38.520;2022-10-16T16:21:22;9.20;;;5.37;;
47760;SDS011;33524;55.434;38.520;2022-10-16T16:24:17;9.45;;;5.60;;
47760;SDS011;33524;55.434;38.520;2022-10-16T16:26:45;10.02;;;5.57;;
47760;SDS011;33524;55.434;38.520;2022-10-16T16:29:14;9.85;;;4.80;;
47760;SDS011;33524;55.434;38.520;2022-10-16T16:31:45;9.98;;;4.80;;
47760;SDS011;33524;55.434;38.520;2022-10-16T16:34:14;6.78;;;3.97;;
47760;SDS011;33524;55.434;38.520;2022-10-16T16:36:42;8.32;;;4.62;;
47760;SDS011;33524;55.434;38.520;2022-10-16T16:39:10;6.40;;;3.92;;
47760;SDS011;33524;55.434;38.520;2022-10-16T16:41:38;8.20;;;3.62;;
47760;SDS011;33524;55.434;38.520;2022-10-16T16:44:07;8.68;;;4.37;;
47760;SDS011;33524;55.434;38.520;2022-10-16T16:46:38;9.73;;;4.72;;
47760;SDS011;33524;55.434;38.520;2022-10-16T16:49:10;8.20;;;4.32;;
47760;SDS011;33524;55.434;38.520;2022-10-16T16:51:40;9.00;;;4.70;;
47760;SDS011;33524;55.434;38.520;2022-10-16T16:54:09;6.22;;;4.47;;
47760;SDS011;33524;55.434;38.520;2022-10-16T16:56:40;7.43;;;4.28;;
47760;SDS011;33524;55.434;38.520;2022-10-16T16:59:14;6.53;;;4.12;;
47760;SDS011;33524;55.434;38.520;2022-10-16T17:01:45;7.50;;;4.57;;
47760;SDS011;33524;55.434;38.520;2022-10-16T17:04:20;7.62;;;4.43;;
47760;SDS011;33524;55.434;38.520;2022-10-16T17:06:48;7.20;;;4.47;;
47760;SDS011;33524;55.434;38.520;2022-10-16T17:09:16;7.37;;;4.62;;
47760;SDS011;33524;55.434;38.520;2022-10-16T17:11:44;7.28;;;4.57;;
47760;SDS011;33524;55.434;38.520;2022-10-16T17:14:13;8.00;;;4.72;;
47760;SDS011;33524;55.434;38.520;2022-10-16T17:16:41;11.05;;;5.03;;
47760;SDS011;33524;55.434;38.520;2022-10-16T17:19:16;9.82;;;5.10;;
47760;SDS011;33524;55.434;38.520;2022-10-16T17:21:47;7.30;;;4.78;;
47760;SDS011;33524;55.434;38.520;2022-10-16T17:24:17;7.43;;;5.03;;
47760;SDS011;33524;55.434;38.520;2022-10-16T17:26:48;9.07;;;5.15;;
47760;SDS011;33524;55.434;38.520;2022-10-16T17:29:16;11.70;;;5.55;;
47760;SDS011;33524;55.434;38.520;2022-10-16T17:31:45;9.05;;;5.10;;
47760;SDS011;33524;55.434;38.520;2022-10-16T17:34:16;9.32;;;5.68;;
47760;SDS011;33524;55.434;38.520;2022-10-16T17:36:43;11.12;;;5.72;;
47760;SDS011;33524;55.434;38.520;2022-10-16T17:39:14;9.07;;;6.15;;
47760;SDS011;33524;55.434;38.520;2022-10-16T17:41:46;10.45;;;5.43;;
47760;SDS011;33524;55.434;38.520;2022-10-16T17:44:15;11.40;;;5.87;;
47760;SDS011;33524;55.434;38.520;2022-10-16T17:46:50;13.02;;;6.07;;
47760;SDS011;33524;55.434;38.520;2022-10-16T17:49:20;7.95;;;5.25;;
47760;SDS011;33524;55.434;38.520;2022-10-16T17:51:49;10.77;;;6.97;;
47760;SDS011;33524;55.434;38.520;2022-10-16T17:54:18;10.43;;;5.75;;
47760;SDS011;33524;55.434;38.520;2022-10-16T17:56:47;10.18;;;6.65;;
47760;SDS011;33524;55.434;38.520;2022-10-16T17:59:15;11.75;;;6.37;;
47760;SDS011;33524;55.434;38.520;2022-10-16T18:01:44;12.45;;;7.18;;
47760;SDS011;33524;55.434;38.520;2022-10-16T18:04:13;14.25;;;8.15;;
47760;SDS011;33524;55.434;38.520;2022-10-16T18:06:43;13.27;;;7.95;;
47760;SDS011;33524;55.434;38.520;2022-10-16T18:09:12;15.40;;;7.65;;
47760;SDS011;33524;55.434;38.520;2022-10-16T18:11:44;12.75;;;8.23;;
47760;SDS011;33524;55.434;38.520;2022-10-16T18:14:13;15.68;;;9.07;;
47760;SDS011;33524;55.434;38.520;2022-10-16T18:16:43;15.93;;;8.93;;
47760;SDS011;33524;55.434;38.520;2022-10-16T18:19:11;13.13;;;7.10;;
47760;SDS011;33524;55.434;38.520;2022-10-16T18:21:39;11.85;;;7.35;;
47760;SDS011;33524;55.434;38.520;2022-10-16T18:24:07;11.95;;;7.85;;
47760;SDS011;33524;55.434;38.520;2022-10-16T18:26:35;8.20;;;3.90;;
47760;SDS011;33524;55.434;38.520;2022-10-16T18:29:04;16.23;;;9.00;;
47760;SDS011;33524;55.434;38.520;2022-10-16T18:31:32;22.55;;;10.52;;
47760;SDS011;33524;55.434;38.520;2022-10-16T18:34:07;22.30;;;11.35;;
47760;SDS011;33524;55.434;38.520;2022-10-16T18:36:35;18.77;;;10.85;;
47760;SDS011;33524;55.434;38.520;2022-10-16T18:39:04;33.08;;;12.82;;
47760;SDS011;33524;55.434;38.520;2022-10-16T18:41:37;13.48;;;7.35;;
47760;SDS011;33524;55.434;38.520;2022-10-16T18:44:08;14.38;;;8.30;;
47760;SDS011;33524;55.434;38.520;2022-10-16T18:46:43;14.05;;;8.20;;
47760;SDS011;33524;55.434;38.520;2022-10-16T18:49:12;12.48;;;6.78;;
47760;SDS011;33524;55.434;38.520;2022-10-16T18:51:40;13.13;;;7.43;;
47760;SDS011;33524;55.434;38.520;2022-10-16T18:54:10;13.77;;;7.75;;
47760;SDS011;33524;55.434;38.520;2022-10-16T18:56:39;14.13;;;7.70;;
47760;SDS011;33524;55.434;38.520;2022-10-16T18:59:07;16.00;;;8.43;;
47760;SDS011;33524;55.434;38.520;2022-10-16T19:01:36;13.68;;;7.50;;
47760;SDS011;33524;55.434;38.520;2022-10-16T19:04:07;9.95;;;5.45;;
47760;SDS011;33524;55.434;38.520;2022-10-16T19:06:41;11.75;;;5.68;;
47760;SDS011;33524;55.434;38.520;2022-10-16T19:09:11;15.82;;;7.40;;
47760;SDS011;33524;55.434;38.520;2022-10-16T19:11:41;15.90;;;8.45;;
47760;SDS011;33524;55.434;38.520;2022-10-16T19:14:13;14.60;;;8.13;;
47760;SDS011;33524;55.434;38.520;2022-10-16T19:16:43;13.40;;;7.70;;
47760;SDS011;33524;55.434;38.520;2022-10-16T19:19:13;8.27;;;4.50;;
47760;SDS011;33524;55.434;38.520;2022-10-16T19:21:44;12.20;;;7.35;;
47760;SDS011;33524;55.434;38.520;2022-10-16T19:24:14;14.40;;;6.45;;
47760;SDS011;33524;55.434;38.520;2022-10-16T19:26:43;10.38;;;5.87;;
47760;SDS011;33524;55.434;38.520;2022-10-16T19:29:21;12.07;;;6.57;;
47760;SDS011;33524;55.434;38.520;2022-10-16T19:31:50;13.57;;;6.05;;
47760;SDS011;33524;55.434;38.520;2022-10-16T19:34:18;13.65;;;6.68;;
47760;SDS011;33524;55.434;38.520;2022-10-16T19:36:45;12.07;;;6.65;;
47760;SDS011;33524;55.434;38.520;2022-10-16T19:39:16;10.07;;;6.35;;
47760;SDS011;33524;55.434;38.520;2022-10-16T19:41:44;12.15;;;6.60;;